sensor_id;sensor_type;location;lat;lon;timestamp;P1;durP1;ratioP1;P2;durP2;ratioP2
72639;SDS011;60683;51.730;8.762;2023-03-23T00:01:00;3.00;;;1.23;;
72639;SDS011;60683;51.730;8.762;2023-03-23T00:03:29;2.35;;;0.90;;
72639;SDS011;60683;51.730;8.762;2023-03-23T00:05:58;2.80;;;1.27;;
72639;SDS011;60683;51.730;8.762;2023-03-23T00:08:34;3.13;;;1.10;;
72639;SDS011;60683;51.730;8.762;2023-03-23T00:11:03;2.92;;;1.10;;
72639;SDS011;60683;51.730;8.762;2023-03-23T00:13:31;3.17;;;0.65;;
72639;SDS011;60683;51.730;8.762;2023-03-23T00:15:59;3.78;;;1.92;;
72639;SDS011;60683;51.730;8.762;2023-03-23T00:18:26;1.88;;;0.82;;
72639;SDS011;60683;51.730;8.762;2023-03-23T00:20:56;1.90;;;0.90;;
72639;SDS011;60683;51.730;8.762;2023-03-23T00:23:24;4.13;;;1.38;;
72639;SDS011;60683;51.730;8.762;2023-03-23T00:25:53;2.45;;;1.17;;
72639;SDS011;60683;51.730;8.762;2023-03-23T00:28:22;7.57;;;1.30;;
72639;SDS011;60683;51.730;8.762;2023-03-23T00:30:55;3.22;;;0.95;;
72639;SDS011;60683;51.730;8.762;2023-03-23T00:33:23;1.80;;;0.80;;
72639;SDS011;60683;51.730;8.762;2023-03-23T00:35:52;12.15;;;2.63;;
72639;SDS011;60683;51.730;8.762;2023-03-23T00:38:22;4.57;;;1.10;;
72639;SDS011;60683;51.730;8.762;2023-03-23T00:43:18;3.00;;;1.30;;
72639;SDS011;60683;51.730;8.762;2023-03-23T00:45:46;3.10;;;1.33;;
72639;SDS011;60683;51.730;8.762;2023-03-23T00:48:18;2.92;;;1.20;;
72639;SDS011;60683;51.730;8.762;2023-03-23T00:50:45;2.95;;;1.05;;
72639;SDS011;60683;51.730;8.762;2023-03-23T00:53:13;2.65;;;0.90;;
72639;SDS011;60683;51.730;8.762;2023-03-23T00:55:43;2.30;;;0.82;;
72639;SDS011;60683;51.730;8.762;2023-03-23T00:58:11;4.22;;;1.13;;
72639;SDS011;60683;51.730;8.762;2023-03-23T01:00:39;3.97;;;1.13;;
72639;SDS011;60683;51.730;8.762;2023-03-23T01:03:07;3.97;;;1.30;;
72639;SDS011;60683;51.730;8.762;2023-03-23T01:05:38;3.58;;;1.05;;
72639;SDS011;60683;51.730;8.762;2023-03-23T01:08:06;3.90;;;1.30;;
72639;SDS011;60683;51.730;8.762;2023-03-23T01:10:34;2.42;;;0.60;;
72639;SDS011;60683;51.730;8.762;2023-03-23T01:13:06;2.40;;;1.20;;
72639;SDS011;60683;51.730;8.762;2023-03-23T01:15:34;2.40;;;0.90;;
72639;SDS011;60683;51.730;8.762;2023-03-23T01:18:02;3.70;;;1.10;;
72639;SDS011;60683;51.730;8.762;2023-03-23T01:20:30;6.45;;;1.38;;
72639;SDS011;60683;51.730;8.762;2023-03-23T01:22:57;2.30;;;1.25;;
72639;SDS011;60683;51.730;8.762;2023-03-23T01:25:28;3.42;;;1.05;;
72639;SDS011;60683;51.730;8.762;2023-03-23T01:27:57;4.53;;;1.27;;
72639;SDS011;60683;51.730;8.762;2023-03-23T01:30:26;2.78;;;1.35;;
72639;SDS011;60683;51.730;8.762;2023-03-23T01:32:54;2.97;;;1.08;;
72639;SDS011;60683;51.730;8.762;2023-03-23T01:35:22;5.20;;;1.95;;
72639;SDS011;60683;51.730;8.762;2023-03-23T01:37:49;3.40;;;1.40;;
72639;SDS011;60683;51.730;8.762;2023-03-23T01:40:17;3.47;;;1.42;;
72639;SDS011;60683;51.730;8.762;2023-03-23T01:42:44;2.53;;;0.85;;
72639;SDS011;60683;51.730;8.762;2023-03-23T01:45:23;3.20;;;1.30;;
72639;SDS011;60683;51.730;8.762;2023-03-23T01:47:55;3.33;;;1.38;;
72639;SDS011;60683;51.730;8.762;2023-03-23T01:50:28;2.88;;;1.30;;
72639;SDS011;60683;51.730;8.762;2023-03-23T01:52:57;3.15;;;1.45;;
72639;SDS011;60683;51.730;8.762;2023-03-23T01:55:25;4.03;;;1.33;;
72639;SDS011;60683;51.730;8.762;2023-03-23T01:57:54;3.10;;;1.50;;
72639;SDS011;60683;51.730;8.762;2023-03-23T02:00:23;2.30;;;1.00;;
72639;SDS011;60683;51.730;8.762;2023-03-23T02:02:51;2.08;;;0.80;;
72639;SDS011;60683;51.730;8.762;2023-03-23T02:05:23;4.95;;;1.73;;
72639;SDS011;60683;51.730;8.762;2023-03-23T02:07:54;4.25;;;1.52;;
72639;SDS011;60683;51.730;8.762;2023-03-23T02:10:21;2.70;;;1.30;;
72639;SDS011;60683;51.730;8.762;2023-03-23T02:12:49;5.20;;;1.42;;
72639;SDS011;60683;51.730;8.762;2023-03-23T02:15:16;4.07;;;1.50;;
72639;SDS011;60683;51.730;8.762;2023-03-23T02:17:45;4.07;;;1.50;;
72639;SDS011;60683;51.730;8.762;2023-03-23T02:20:27;3.55;;;1.33;;
72639;SDS011;60683;51.730;8.762;2023-03-23T02:23:13;3.30;;;1.30;;
72639;SDS011;60683;51.730;8.762;2023-03-23T02:25:56;4.13;;;1.20;;
72639;SDS011;60683;51.730;8.762;2023-03-23T02:31:27;2.40;;;1.20;;
72639;SDS011;60683;51.730;8.762;2023-03-23T02:34:06;2.88;;;1.33;;
72639;SDS011;60683;51.730;8.762;2023-03-23T02:36:37;3.38;;;1.35;;
72639;SDS011;60683;51.730;8.762;2023-03-23T02:39:09;5.38;;;1.42;;
72639;SDS011;60683;51.730;8.762;2023-03-23T02:41:41;2.83;;;1.00;;
72639;SDS011;60683;51.730;8.762;2023-03-23T02:44:10;5.40;;;0.88;;
72639;SDS011;60683;51.730;8.762;2023-03-23T02:46:39;3.30;;;1.30;;
72639;SDS011;60683;51.730;8.762;2023-03-23T02:49:08;3.70;;;1.60;;
72639;SDS011;60683;51.730;8.762;2023-03-23T02:51:37;4.35;;;1.40;;
72639;SDS011;60683;51.730;8.762;2023-03-23T02:54:05;3.95;;;1.67;;
72639;SDS011;60683;51.730;8.762;2023-03-23T02:56:34;4.53;;;1.60;;
72639;SDS011;60683;51.730;8.762;2023-03-23T02:59:02;2.45;;;1.10;;
72639;SDS011;60683;51.730;8.762;2023-03-23T03:04:33;5.10;;;1.73;;
72639;SDS011;60683;51.730;8.762;2023-03-23T03:07:06;3.53;;;1.45;;
72639;SDS011;60683;51.730;8.762;2023-03-23T03:09:42;3.47;;;1.52;;
72639;SDS011;60683;51.730;8.762;2023-03-23T03:12:15;6.20;;;1.48;;
72639;SDS011;60683;51.730;8.762;2023-03-23T03:14:47;4.88;;;1.40;;
72639;SDS011;60683;51.730;8.762;2023-03-23T03:17:20;2.63;;;1.05;;
72639;SDS011;60683;51.730;8.762;2023-03-23T03:19:52;3.55;;;1.98;;
72639;SDS011;60683;51.730;8.762;2023-03-23T03:22:23;3.20;;;1.42;;
72639;SDS011;60683;51.730;8.762;2023-03-23T03:24:54;3.53;;;1.63;;
72639;SDS011;60683;51.730;8.762;2023-03-23T03:27:23;2.88;;;1.38;;
72639;SDS011;60683;51.730;8.762;2023-03-23T03:29:51;2.83;;;1.50;;
72639;SDS011;60683;51.730;8.762;2023-03-23T03:32:23;2.97;;;1.20;;
72639;SDS011;60683;51.730;8.762;2023-03-23T03:34:58;2.28;;;1.00;;
72639;SDS011;60683;51.730;8.762;2023-03-23T03:37:27;4.43;;;1.60;;
72639;SDS011;60683;51.730;8.762;2023-03-23T03:40:03;3.20;;;1.20;;
72639;SDS011;60683;51.730;8.762;2023-03-23T03:42:38;3.10;;;1.20;;
72639;SDS011;60683;51.730;8.762;2023-03-23T03:45:06;2.60;;;1.10;;
72639;SDS011;60683;51.730;8.762;2023-03-23T03:47:35;2.20;;;1.13;;
72639;SDS011;60683;51.730;8.762;2023-03-23T03:50:04;1.90;;;0.82;;
72639;SDS011;60683;51.730;8.762;2023-03-23T03:52:33;1.90;;;1.20;;
72639;SDS011;60683;51.730;8.762;2023-03-23T03:55:00;3.03;;;0.90;;
72639;SDS011;60683;51.730;8.762;2023-03-23T03:57:28;1.65;;;0.80;;
72639;SDS011;60683;51.730;8.762;2023-03-23T03:59:56;2.60;;;0.88;;
72639;SDS011;60683;51.730;8.762;2023-03-23T04:02:24;3.17;;;0.93;;
72639;SDS011;60683;51.730;8.762;2023-03-23T04:04:51;2.33;;;0.98;;
72639;SDS011;60683;51.730;8.762;2023-03-23T04:07:21;1.77;;;0.70;;
72639;SDS011;60683;51.730;8.762;2023-03-23T04:09:51;2.75;;;0.73;;
72639;SDS011;60683;51.730;8.762;2023-03-23T04:12:19;2.53;;;1.10;;
72639;SDS011;60683;51.730;8.762;2023-03-23T04:14:46;2.00;;;0.85;;
72639;SDS011;60683;51.730;8.762;2023-03-23T04:17:14;2.05;;;0.70;;
72639;SDS011;60683;51.730;8.762;2023-03-23T04:19:43;1.60;;;0.60;;
72639;SDS011;60683;51.730;8.762;2023-03-23T04:22:11;1.77;;;0.80;;
72639;SDS011;60683;51.730;8.762;2023-03-23T04:24:40;2.03;;;0.82;;
72639;SDS011;60683;51.730;8.762;2023-03-23T04:27:08;1.35;;;0.52;;
72639;SDS011;60683;51.730;8.762;2023-03-23T04:29:38;2.15;;;0.85;;
72639;SDS011;60683;51.730;8.762;2023-03-23T04:32:07;1.20;;;0.50;;
72639;SDS011;60683;51.730;8.762;2023-03-23T04:34:34;2.28;;;0.90;;
72639;SDS011;60683;51.730;8.762;2023-03-23T04:37:02;1.48;;;0.63;;
72639;SDS011;60683;51.730;8.762;2023-03-23T04:39:29;2.40;;;0.82;;
72639;SDS011;60683;51.730;8.762;2023-03-23T04:42:00;2.55;;;0.90;;
72639;SDS011;60683;51.730;8.762;2023-03-23T04:44:28;2.08;;;0.77;;
72639;SDS011;60683;51.730;8.762;2023-03-23T04:47:00;1.92;;;0.80;;
72639;SDS011;60683;51.730;8.762;2023-03-23T04:49:27;1.92;;;0.60;;
72639;SDS011;60683;51.730;8.762;2023-03-23T04:51:56;2.22;;;0.70;;
72639;SDS011;60683;51.730;8.762;2023-03-23T04:54:23;2.08;;;0.75;;
72639;SDS011;60683;51.730;8.762;2023-03-23T04:56:53;1.60;;;0.90;;
72639;SDS011;60683;51.730;8.762;2023-03-23T04:59:22;1.45;;;0.60;;
72639;SDS011;60683;51.730;8.762;2023-03-23T05:01:54;1.60;;;0.75;;
72639;SDS011;60683;51.730;8.762;2023-03-23T05:04:21;1.70;;;0.68;;
72639;SDS011;60683;51.730;8.762;2023-03-23T05:06:51;2.33;;;0.88;;
72639;SDS011;60683;51.730;8.762;2023-03-23T05:09:19;1.08;;;0.40;;
72639;SDS011;60683;51.730;8.762;2023-03-23T05:11:47;2.10;;;0.73;;
72639;SDS011;60683;51.730;8.762;2023-03-23T05:14:14;3.90;;;0.82;;
72639;SDS011;60683;51.730;8.762;2023-03-23T05:16:43;1.42;;;0.50;;
72639;SDS011;60683;51.730;8.762;2023-03-23T05:19:14;2.42;;;1.00;;
72639;SDS011;60683;51.730;8.762;2023-03-23T05:21:42;2.40;;;0.63;;
72639;SDS011;60683;51.730;8.762;2023-03-23T05:24:10;1.52;;;0.70;;
72639;SDS011;60683;51.730;8.762;2023-03-23T05:26:38;2.15;;;0.70;;
72639;SDS011;60683;51.730;8.762;2023-03-23T05:29:06;2.17;;;0.77;;
72639;SDS011;60683;51.730;8.762;2023-03-23T05:31:33;3.15;;;0.80;;
72639;SDS011;60683;51.730;8.762;2023-03-23T05:34:03;2.50;;;0.80;;
72639;SDS011;60683;51.730;8.762;2023-03-23T05:36:30;2.40;;;0.90;;
72639;SDS011;60683;51.730;8.762;2023-03-23T05:38:58;2.40;;;0.80;;
72639;SDS011;60683;51.730;8.762;2023-03-23T05:41:26;1.08;;;0.73;;
72639;SDS011;60683;51.730;8.762;2023-03-23T05:43:53;2.22;;;1.00;;
72639;SDS011;60683;51.730;8.762;2023-03-23T05:46:21;1.75;;;0.55;;
72639;SDS011;60683;51.730;8.762;2023-03-23T05:48:48;1.73;;;0.70;;
72639;SDS011;60683;51.730;8.762;2023-03-23T05:51:18;3.65;;;0.93;;
72639;SDS011;60683;51.730;8.762;2023-03-23T05:53:45;1.80;;;0.80;;
72639;SDS011;60683;51.730;8.762;2023-03-23T05:56:13;3.28;;;1.17;;
72639;SDS011;60683;51.730;8.762;2023-03-23T05:58:41;1.88;;;0.90;;
72639;SDS011;60683;51.730;8.762;2023-03-23T06:01:09;2.53;;;1.00;;
72639;SDS011;60683;51.730;8.762;2023-03-23T06:03:38;1.90;;;0.77;;
72639;SDS011;60683;51.730;8.762;2023-03-23T06:06:06;2.97;;;0.95;;
72639;SDS011;60683;51.730;8.762;2023-03-23T06:08:35;1.63;;;0.63;;
72639;SDS011;60683;51.730;8.762;2023-03-23T06:11:03;2.58;;;0.90;;
72639;SDS011;60683;51.730;8.762;2023-03-23T06:13:31;1.90;;;0.98;;
72639;SDS011;60683;51.730;8.762;2023-03-23T06:15:59;2.25;;;1.02;;
72639;SDS011;60683;51.730;8.762;2023-03-23T06:18:26;2.90;;;1.02;;
72639;SDS011;60683;51.730;8.762;2023-03-23T06:20:54;2.40;;;0.80;;
72639;SDS011;60683;51.730;8.762;2023-03-23T06:23:22;3.30;;;0.88;;
72639;SDS011;60683;51.730;8.762;2023-03-23T06:25:54;2.88;;;1.23;;
72639;SDS011;60683;51.730;8.762;2023-03-23T06:28:22;4.32;;;1.08;;
72639;SDS011;60683;51.730;8.762;2023-03-23T06:30:50;3.70;;;1.10;;
72639;SDS011;60683;51.730;8.762;2023-03-23T06:33:18;4.30;;;1.27;;
72639;SDS011;60683;51.730;8.762;2023-03-23T06:35:46;1.67;;;0.90;;
72639;SDS011;60683;51.730;8.762;2023-03-23T06:38:14;2.00;;;1.00;;
72639;SDS011;60683;51.730;8.762;2023-03-23T06:40:42;2.97;;;1.05;;
72639;SDS011;60683;51.730;8.762;2023-03-23T06:43:13;1.88;;;0.80;;
72639;SDS011;60683;51.730;8.762;2023-03-23T06:45:41;1.23;;;0.70;;
72639;SDS011;60683;51.730;8.762;2023-03-23T06:48:08;3.17;;;0.90;;
72639;SDS011;60683;51.730;8.762;2023-03-23T06:50:36;4.55;;;1.42;;
72639;SDS011;60683;51.730;8.762;2023-03-23T06:53:03;2.70;;;1.00;;
72639;SDS011;60683;51.730;8.762;2023-03-23T06:55:31;3.22;;;1.13;;
72639;SDS011;60683;51.730;8.762;2023-03-23T06:57:58;2.67;;;1.20;;
72639;SDS011;60683;51.730;8.762;2023-03-23T07:00:28;2.40;;;1.15;;
72639;SDS011;60683;51.730;8.762;2023-03-23T07:02:56;2.63;;;1.10;;
72639;SDS011;60683;51.730;8.762;2023-03-23T07:05:24;1.60;;;0.90;;
72639;SDS011;60683;51.730;8.762;2023-03-23T07:07:52;2.85;;;0.95;;
72639;SDS011;60683;51.730;8.762;2023-03-23T07:10:20;3.80;;;1.02;;
72639;SDS011;60683;51.730;8.762;2023-03-23T07:12:47;3.25;;;1.30;;
72639;SDS011;60683;51.730;8.762;2023-03-23T07:15:15;2.92;;;0.98;;
72639;SDS011;60683;51.730;8.762;2023-03-23T07:17:44;5.25;;;1.30;;
72639;SDS011;60683;51.730;8.762;2023-03-23T07:20:11;2.17;;;0.95;;
72639;SDS011;60683;51.730;8.762;2023-03-23T07:22:39;2.22;;;1.00;;
72639;SDS011;60683;51.730;8.762;2023-03-23T07:25:07;2.42;;;0.85;;
72639;SDS011;60683;51.730;8.762;2023-03-23T07:27:35;4.97;;;1.52;;
72639;SDS011;60683;51.730;8.762;2023-03-23T07:30:05;1.92;;;0.80;;
72639;SDS011;60683;51.730;8.762;2023-03-23T07:32:33;3.95;;;1.35;;
72639;SDS011;60683;51.730;8.762;2023-03-23T07:35:02;2.33;;;1.02;;
72639;SDS011;60683;51.730;8.762;2023-03-23T07:37:30;2.33;;;0.80;;
72639;SDS011;60683;51.730;8.762;2023-03-23T07:39:58;3.00;;;1.10;;
72639;SDS011;60683;51.730;8.762;2023-03-23T07:42:26;1.55;;;0.80;;
72639;SDS011;60683;51.730;8.762;2023-03-23T07:44:54;7.65;;;1.52;;
72639;SDS011;60683;51.730;8.762;2023-03-23T07:47:21;2.33;;;1.05;;
72639;SDS011;60683;51.730;8.762;2023-03-23T07:49:49;4.32;;;1.17;;
72639;SDS011;60683;51.730;8.762;2023-03-23T07:52:18;2.55;;;1.10;;
72639;SDS011;60683;51.730;8.762;2023-03-23T08:02:08;9.15;;;1.25;;
72639;SDS011;60683;51.730;8.762;2023-03-23T08:04:37;2.17;;;0.95;;
72639;SDS011;60683;51.730;8.762;2023-03-23T08:07:04;2.67;;;0.95;;
72639;SDS011;60683;51.730;8.762;2023-03-23T08:09:33;2.97;;;1.23;;
72639;SDS011;60683;51.730;8.762;2023-03-23T08:12:00;3.28;;;0.95;;
72639;SDS011;60683;51.730;8.762;2023-03-23T08:14:28;4.85;;;1.15;;
72639;SDS011;60683;51.730;8.762;2023-03-23T08:16:56;2.47;;;0.88;;
72639;SDS011;60683;51.730;8.762;2023-03-23T08:19:24;2.78;;;0.95;;
72639;SDS011;60683;51.730;8.762;2023-03-23T08:21:52;5.47;;;1.75;;
72639;SDS011;60683;51.730;8.762;2023-03-23T08:24:19;2.47;;;1.00;;
72639;SDS011;60683;51.730;8.762;2023-03-23T08:26:48;2.17;;;1.05;;
72639;SDS011;60683;51.730;8.762;2023-03-23T08:29:15;1.83;;;0.80;;
72639;SDS011;60683;51.730;8.762;2023-03-23T08:31:43;3.65;;;1.08;;
72639;SDS011;60683;51.730;8.762;2023-03-23T08:34:11;2.47;;;1.05;;
72639;SDS011;60683;51.730;8.762;2023-03-23T08:36:39;3.53;;;0.85;;
72639;SDS011;60683;51.730;8.762;2023-03-23T08:39:06;4.55;;;1.38;;
72639;SDS011;60683;51.730;8.762;2023-03-23T08:41:34;1.83;;;0.63;;
72639;SDS011;60683;51.730;8.762;2023-03-23T08:44:03;3.05;;;0.98;;
72639;SDS011;60683;51.730;8.762;2023-03-23T08:46:31;4.47;;;1.02;;
72639;SDS011;60683;51.730;8.762;2023-03-23T08:48:58;2.58;;;0.88;;
72639;SDS011;60683;51.730;8.762;2023-03-23T08:51:26;3.78;;;1.23;;
72639;SDS011;60683;51.730;8.762;2023-03-23T08:53:53;1.95;;;0.75;;
72639;SDS011;60683;51.730;8.762;2023-03-23T08:56:21;3.08;;;0.98;;
72639;SDS011;60683;51.730;8.762;2023-03-23T08:58:49;2.47;;;0.77;;
72639;SDS011;60683;51.730;8.762;2023-03-23T09:01:18;3.72;;;1.25;;
72639;SDS011;60683;51.730;8.762;2023-03-23T09:03:45;2.70;;;0.90;;
72639;SDS011;60683;51.730;8.762;2023-03-23T09:06:13;4.65;;;0.95;;
72639;SDS011;60683;51.730;8.762;2023-03-23T09:08:40;3.15;;;1.33;;
72639;SDS011;60683;51.730;8.762;2023-03-23T09:11:08;3.35;;;0.85;;
72639;SDS011;60683;51.730;8.762;2023-03-23T09:13:37;3.85;;;1.15;;
72639;SDS011;60683;51.730;8.762;2023-03-23T09:16:06;2.78;;;1.13;;
72639;SDS011;60683;51.730;8.762;2023-03-23T09:18:35;4.03;;;0.90;;
72639;SDS011;60683;51.730;8.762;2023-03-23T09:21:03;3.15;;;1.00;;
72639;SDS011;60683;51.730;8.762;2023-03-23T09:23:31;2.78;;;0.68;;
72639;SDS011;60683;51.730;8.762;2023-03-23T09:26:00;2.55;;;0.90;;
72639;SDS011;60683;51.730;8.762;2023-03-23T09:28:28;2.20;;;0.90;;
72639;SDS011;60683;51.730;8.762;2023-03-23T09:30:56;2.50;;;0.93;;
72639;SDS011;60683;51.730;8.762;2023-03-23T09:33:25;3.53;;;1.08;;
72639;SDS011;60683;51.730;8.762;2023-03-23T09:35:56;2.63;;;1.17;;
72639;SDS011;60683;51.730;8.762;2023-03-23T09:38:24;2.20;;;0.88;;
72639;SDS011;60683;51.730;8.762;2023-03-23T09:40:53;2.05;;;0.85;;
72639;SDS011;60683;51.730;8.762;2023-03-23T09:43:36;1.77;;;0.68;;
72639;SDS011;60683;51.730;8.762;2023-03-23T09:46:14;4.72;;;1.50;;
72639;SDS011;60683;51.730;8.762;2023-03-23T09:48:50;3.63;;;1.00;;
72639;SDS011;60683;51.730;8.762;2023-03-23T09:51:27;4.07;;;1.38;;
72639;SDS011;60683;51.730;8.762;2023-03-23T09:54:00;2.58;;;0.80;;
72639;SDS011;60683;51.730;8.762;2023-03-23T09:58:58;3.08;;;0.77;;
72639;SDS011;60683;51.730;8.762;2023-03-23T10:01:28;3.15;;;0.93;;
72639;SDS011;60683;51.730;8.762;2023-03-23T10:04:01;4.00;;;1.23;;
72639;SDS011;60683;51.730;8.762;2023-03-23T10:06:30;3.28;;;0.95;;
72639;SDS011;60683;51.730;8.762;2023-03-23T10:08:58;3.35;;;0.90;;
72639;SDS011;60683;51.730;8.762;2023-03-23T10:11:30;3.10;;;1.17;;
72639;SDS011;60683;51.730;8.762;2023-03-23T10:14:09;2.13;;;0.85;;
72639;SDS011;60683;51.730;8.762;2023-03-23T10:16:46;3.25;;;0.88;;
72639;SDS011;60683;51.730;8.762;2023-03-23T10:19:20;2.47;;;0.75;;
72639;SDS011;60683;51.730;8.762;2023-03-23T10:21:51;3.78;;;0.98;;
72639;SDS011;60683;51.730;8.762;2023-03-23T10:24:21;4.07;;;1.17;;
72639;SDS011;60683;51.730;8.762;2023-03-23T10:26:58;3.22;;;0.95;;
72639;SDS011;60683;51.730;8.762;2023-03-23T10:29:31;2.50;;;1.20;;
72639;SDS011;60683;51.730;8.762;2023-03-23T10:32:03;3.95;;;0.95;;
72639;SDS011;60683;51.730;8.762;2023-03-23T10:34:43;2.65;;;1.38;;
72639;SDS011;60683;51.730;8.762;2023-03-23T10:37:16;3.15;;;0.98;;
72639;SDS011;60683;51.730;8.762;2023-03-23T10:39:47;2.95;;;0.85;;
72639;SDS011;60683;51.730;8.762;2023-03-23T10:42:22;5.78;;;0.98;;
72639;SDS011;60683;51.730;8.762;2023-03-23T10:44:52;6.07;;;1.70;;
72639;SDS011;60683;51.730;8.762;2023-03-23T10:47:20;3.42;;;0.95;;
72639;SDS011;60683;51.730;8.762;2023-03-23T10:49:48;3.35;;;0.95;;
72639;SDS011;60683;51.730;8.762;2023-03-23T10:52:25;3.97;;;0.90;;
72639;SDS011;60683;51.730;8.762;2023-03-23T10:54:57;1.90;;;0.70;;
72639;SDS011;60683;51.730;8.762;2023-03-23T10:57:29;3.97;;;1.35;;
72639;SDS011;60683;51.730;8.762;2023-03-23T10:59:58;2.88;;;1.08;;
72639;SDS011;60683;51.730;8.762;2023-03-23T11:02:27;3.15;;;1.02;;
72639;SDS011;60683;51.730;8.762;2023-03-23T11:04:59;2.05;;;0.70;;
72639;SDS011;60683;51.730;8.762;2023-03-23T11:07:29;5.22;;;0.98;;
72639;SDS011;60683;51.730;8.762;2023-03-23T11:10:03;4.35;;;0.70;;
72639;SDS011;60683;51.730;8.762;2023-03-23T11:12:35;2.83;;;0.95;;
72639;SDS011;60683;51.730;8.762;2023-03-23T11:15:09;3.35;;;0.93;;
72639;SDS011;60683;51.730;8.762;2023-03-23T11:17:55;2.45;;;0.85;;
72639;SDS011;60683;51.730;8.762;2023-03-23T11:20:25;3.03;;;1.00;;
72639;SDS011;60683;51.730;8.762;2023-03-23T11:22:55;2.88;;;1.02;;
72639;SDS011;60683;51.730;8.762;2023-03-23T11:25:23;3.63;;;1.17;;
72639;SDS011;60683;51.730;8.762;2023-03-23T11:27:52;4.00;;;1.42;;
72639;SDS011;60683;51.730;8.762;2023-03-23T11:30:22;2.67;;;0.55;;
72639;SDS011;60683;51.730;8.762;2023-03-23T11:32:53;5.22;;;1.25;;
72639;SDS011;60683;51.730;8.762;2023-03-23T11:35:23;9.75;;;1.30;;
72639;SDS011;60683;51.730;8.762;2023-03-23T11:37:53;4.55;;;1.10;;
72639;SDS011;60683;51.730;8.762;2023-03-23T11:40:24;3.05;;;1.00;;
72639;SDS011;60683;51.730;8.762;2023-03-23T11:42:57;3.67;;;0.90;;
72639;SDS011;60683;51.730;8.762;2023-03-23T11:45:32;3.78;;;1.08;;
72639;SDS011;60683;51.730;8.762;2023-03-23T11:48:03;3.90;;;0.95;;
72639;SDS011;60683;51.730;8.762;2023-03-23T11:50:44;3.28;;;0.68;;
72639;SDS011;60683;51.730;8.762;2023-03-23T11:53:18;3.40;;;0.73;;
72639;SDS011;60683;51.730;8.762;2023-03-23T11:55:53;3.97;;;0.85;;
72639;SDS011;60683;51.730;8.762;2023-03-23T11:58:25;4.30;;;0.90;;
72639;SDS011;60683;51.730;8.762;2023-03-23T12:00:59;3.90;;;1.10;;
72639;SDS011;60683;51.730;8.762;2023-03-23T12:03:35;3.55;;;0.90;;
72639;SDS011;60683;51.730;8.762;2023-03-23T12:06:20;4.72;;;1.02;;
72639;SDS011;60683;51.730;8.762;2023-03-23T12:09:01;2.70;;;0.90;;
72639;SDS011;60683;51.730;8.762;2023-03-23T12:11:35;3.75;;;0.95;;
72639;SDS011;60683;51.730;8.762;2023-03-23T12:14:12;4.90;;;1.63;;
72639;SDS011;60683;51.730;8.762;2023-03-23T12:16:56;1.75;;;0.80;;
72639;SDS011;60683;51.730;8.762;2023-03-23T12:19:30;2.00;;;0.80;;
72639;SDS011;60683;51.730;8.762;2023-03-23T12:22:06;1.85;;;0.80;;
72639;SDS011;60683;51.730;8.762;2023-03-23T12:24:43;1.98;;;0.85;;
72639;SDS011;60683;51.730;8.762;2023-03-23T12:27:22;2.40;;;0.80;;
72639;SDS011;60683;51.730;8.762;2023-03-23T12:29:58;1.58;;;0.47;;
72639;SDS011;60683;51.730;8.762;2023-03-23T12:32:36;1.95;;;0.70;;
72639;SDS011;60683;51.730;8.762;2023-03-23T12:35:16;2.53;;;0.60;;
72639;SDS011;60683;51.730;8.762;2023-03-23T12:37:53;1.45;;;0.70;;
72639;SDS011;60683;51.730;8.762;2023-03-23T12:40:42;1.60;;;0.68;;
72639;SDS011;60683;51.730;8.762;2023-03-23T12:43:16;1.33;;;0.60;;
72639;SDS011;60683;51.730;8.762;2023-03-23T12:45:50;1.52;;;0.73;;
72639;SDS011;60683;51.730;8.762;2023-03-23T12:48:25;2.28;;;0.80;;
72639;SDS011;60683;51.730;8.762;2023-03-23T12:51:10;2.90;;;1.00;;
72639;SDS011;60683;51.730;8.762;2023-03-23T12:53:44;5.15;;;1.10;;
72639;SDS011;60683;51.730;8.762;2023-03-23T12:56:19;3.42;;;0.98;;
72639;SDS011;60683;51.730;8.762;2023-03-23T12:58:50;5.22;;;1.08;;
72639;SDS011;60683;51.730;8.762;2023-03-23T13:01:21;3.85;;;1.00;;
72639;SDS011;60683;51.730;8.762;2023-03-23T13:03:54;2.63;;;1.10;;
72639;SDS011;60683;51.730;8.762;2023-03-23T13:06:24;4.00;;;1.08;;
72639;SDS011;60683;51.730;8.762;2023-03-23T13:08:56;1.67;;;0.70;;
72639;SDS011;60683;51.730;8.762;2023-03-23T13:11:29;1.73;;;0.75;;
72639;SDS011;60683;51.730;8.762;2023-03-23T13:14:02;3.55;;;1.00;;
72639;SDS011;60683;51.730;8.762;2023-03-23T13:16:37;3.50;;;1.30;;
72639;SDS011;60683;51.730;8.762;2023-03-23T13:19:11;3.33;;;0.88;;
72639;SDS011;60683;51.730;8.762;2023-03-23T13:21:43;4.35;;;1.50;;
72639;SDS011;60683;51.730;8.762;2023-03-23T13:24:14;3.30;;;1.00;;
72639;SDS011;60683;51.730;8.762;2023-03-23T13:26:44;3.83;;;1.42;;
72639;SDS011;60683;51.730;8.762;2023-03-23T13:29:14;3.35;;;1.20;;
72639;SDS011;60683;51.730;8.762;2023-03-23T13:34:15;3.55;;;1.40;;
72639;SDS011;60683;51.730;8.762;2023-03-23T13:36:44;4.13;;;1.30;;
72639;SDS011;60683;51.730;8.762;2023-03-23T13:39:19;4.47;;;1.15;;
72639;SDS011;60683;51.730;8.762;2023-03-23T13:42:00;4.35;;;1.52;;
72639;SDS011;60683;51.730;8.762;2023-03-23T13:44:40;3.72;;;1.55;;
72639;SDS011;60683;51.730;8.762;2023-03-23T13:47:16;3.90;;;1.35;;
72639;SDS011;60683;51.730;8.762;2023-03-23T13:49:54;3.30;;;1.23;;
72639;SDS011;60683;51.730;8.762;2023-03-23T13:52:24;3.35;;;1.30;;
72639;SDS011;60683;51.730;8.762;2023-03-23T13:55:08;4.68;;;1.80;;
72639;SDS011;60683;51.730;8.762;2023-03-23T13:57:50;3.47;;;1.50;;
72639;SDS011;60683;51.730;8.762;2023-03-23T14:00:26;4.72;;;1.77;;
72639;SDS011;60683;51.730;8.762;2023-03-23T14:03:02;3.47;;;1.42;;
72639;SDS011;60683;51.730;8.762;2023-03-23T14:05:34;4.00;;;1.48;;
72639;SDS011;60683;51.730;8.762;2023-03-23T14:08:09;5.15;;;1.63;;
72639;SDS011;60683;51.730;8.762;2023-03-23T14:13:13;5.78;;;2.25;;
72639;SDS011;60683;51.730;8.762;2023-03-23T14:15:44;5.40;;;1.75;;
72639;SDS011;60683;51.730;8.762;2023-03-23T14:18:21;3.47;;;1.35;;
72639;SDS011;60683;51.730;8.762;2023-03-23T14:20:49;4.63;;;2.22;;
72639;SDS011;60683;51.730;8.762;2023-03-23T14:23:17;4.00;;;1.67;;
72639;SDS011;60683;51.730;8.762;2023-03-23T14:25:54;4.78;;;1.80;;
72639;SDS011;60683;51.730;8.762;2023-03-23T14:28:23;3.90;;;2.22;;
72639;SDS011;60683;51.730;8.762;2023-03-23T14:30:54;5.20;;;2.00;;
72639;SDS011;60683;51.730;8.762;2023-03-23T14:33:23;5.63;;;2.30;;
72639;SDS011;60683;51.730;8.762;2023-03-23T14:35:52;3.92;;;1.90;;
72639;SDS011;60683;51.730;8.762;2023-03-23T14:38:21;7.13;;;2.00;;
72639;SDS011;60683;51.730;8.762;2023-03-23T14:40:53;4.57;;;1.92;;
72639;SDS011;60683;51.730;8.762;2023-03-23T14:43:21;5.80;;;2.03;;
72639;SDS011;60683;51.730;8.762;2023-03-23T14:45:51;4.35;;;1.90;;
72639;SDS011;60683;51.730;8.762;2023-03-23T14:48:20;5.28;;;2.38;;
72639;SDS011;60683;51.730;8.762;2023-03-23T14:50:49;6.22;;;2.45;;
72639;SDS011;60683;51.730;8.762;2023-03-23T14:53:18;3.97;;;2.42;;
72639;SDS011;60683;51.730;8.762;2023-03-23T14:55:50;4.38;;;2.55;;
72639;SDS011;60683;51.730;8.762;2023-03-23T14:58:19;4.05;;;1.75;;
72639;SDS011;60683;51.730;8.762;2023-03-23T15:00:49;5.47;;;2.25;;
72639;SDS011;60683;51.730;8.762;2023-03-23T15:03:21;6.38;;;2.58;;
72639;SDS011;60683;51.730;8.762;2023-03-23T15:05:51;6.28;;;2.30;;
72639;SDS011;60683;51.730;8.762;2023-03-23T15:08:22;4.13;;;2.15;;
72639;SDS011;60683;51.730;8.762;2023-03-23T15:10:56;5.75;;;2.70;;
72639;SDS011;60683;51.730;8.762;2023-03-23T15:13:30;5.18;;;2.22;;
72639;SDS011;60683;51.730;8.762;2023-03-23T15:16:04;6.30;;;3.00;;
72639;SDS011;60683;51.730;8.762;2023-03-23T15:18:34;5.32;;;2.80;;
72639;SDS011;60683;51.730;8.762;2023-03-23T15:21:10;5.22;;;2.88;;
72639;SDS011;60683;51.730;8.762;2023-03-23T15:23:42;6.00;;;3.10;;
72639;SDS011;60683;51.730;8.762;2023-03-23T15:26:25;6.68;;;3.08;;
72639;SDS011;60683;51.730;8.762;2023-03-23T15:29:03;7.78;;;3.20;;
72639;SDS011;60683;51.730;8.762;2023-03-23T15:31:42;6.25;;;2.97;;